Terminal Aerodrome Forecast
Issued by NWS

Home | Current Version | Previous Version | Text Only | Print | Product List | Glossary Off
Versions: 1 2 3 4 5 6 7 8 9 10 11 12 13 14 15 16 17 18
000 FTUS41 KBOX 060541 TAFHYA TAF KHYA 060541Z 0606/0706 36015G23KT 6SM BR VCSH OVC008 FM061400 04011KT P6SM BKN025 FM061800 06012KT P6SM BKN040 FM062000 07012KT P6SM SCT040 FM070000 08011KT 5SM BR VCSH BKN015=

USA.gov is the U.S. government's official web portal to all federal, state and local government web resources and services.